createdAt,value
2018-04-24T00:00:24.406Z,74.5
2018-04-24T00:01:14.760Z,74.5
2018-04-24T00:02:04.813Z,74.5
2018-04-24T00:02:54.883Z,74.5
2018-04-24T00:03:44.946Z,74.4
2018-04-24T00:04:34.446Z,74.4
2018-04-24T00:05:25.089Z,74.4
2018-04-24T00:06:15.152Z,74.4
2018-04-24T00:07:05.189Z,74.4
2018-04-24T00:07:55.292Z,74.4
2018-04-24T00:08:45.329Z,74.4
2018-04-24T00:09:35.394Z,74.4
2018-04-24T00:10:24.911Z,74.4
2018-04-24T00:11:15.520Z,74.4
2018-04-24T00:12:05.653Z,74.4
2018-04-24T00:12:55.366Z,74.4
2018-04-24T00:13:45.731Z,74.3
2018-04-24T00:14:35.497Z,74.3
2018-04-24T00:15:25.833Z,74.3
2018-04-24T00:16:15.618Z,74.3
2018-04-24T00:17:05.959Z,74.3
2018-04-24T00:17:56.033Z,74.3
2018-04-24T00:18:46.112Z,74.3
2018-04-24T00:19:36.176Z,74.3
2018-04-24T00:20:25.940Z,74.3
2018-04-24T00:21:16.009Z,74.3
2018-04-24T00:22:06.090Z,74.3
2018-04-24T00:22:55.876Z,74.3
2018-04-24T00:23:46.213Z,74.2
2018-04-24T00:24:35.989Z,74.2
2018-04-24T00:25:26.630Z,74.2
2018-04-24T00:26:16.390Z,74.2
2018-04-24T00:27:06.456Z,74.2
2018-04-24T00:27:56.876Z,74.2
2018-04-24T00:28:46.585Z,74.2
2018-04-24T00:29:36.944Z,74.1
2018-04-24T00:30:26.988Z,74.1
2018-04-24T00:31:17.054Z,74.1
2018-04-24T00:32:06.863Z,74.1
2018-04-24T00:32:57.194Z,74.1
2018-04-24T00:33:46.963Z,74.1
2018-04-24T00:34:37.035Z,74.1
2018-04-24T00:35:27.400Z,74.1
2018-04-24T00:36:16.604Z,74.1
2018-04-24T00:37:07.250Z,74.1
2018-04-24T00:37:57.310Z,74.1
2018-04-24T00:38:46.798Z,74.1
2018-04-24T00:39:37.448Z,74
2018-04-24T00:40:27.772Z,74
2018-04-24T00:41:17.267Z,74
2018-04-24T00:42:07.900Z,74
2018-04-24T00:42:57.948Z,74
2018-04-24T00:43:48.009Z,73.9
2018-04-24T00:44:38.142Z,73.9
2018-04-24T00:45:28.152Z,73.9
2018-04-24T00:46:17.909Z,73.9
2018-04-24T00:47:08.270Z,73.9
2018-04-24T00:47:58.342Z,73.9
2018-04-24T00:48:48.392Z,73.9
2018-04-24T00:49:38.465Z,73.9
2018-04-24T00:50:27.959Z,73.9
2018-04-24T00:51:18.625Z,73.9
2018-04-24T00:52:08.664Z,73.9
2018-04-24T00:52:58.724Z,73.9
2018-04-24T00:53:48.794Z,73.9
2018-04-24T00:54:38.277Z,73.8
2018-04-24T00:55:28.352Z,73.8
2018-04-24T00:56:18.972Z,73.8
2018-04-24T00:57:09.034Z,73.8
2018-04-24T00:57:58.550Z,73.8
2018-04-24T00:58:48.921Z,73.8
2018-04-24T00:59:38.963Z,73.8
2018-04-24T01:00:29.105Z,73.8
2018-04-24T01:01:19.101Z,73.8
2018-04-24T01:02:09.426Z,73.8
2018-04-24T01:02:58.925Z,73.8
2018-04-24T01:03:49.258Z,73.8
2018-04-24T01:04:39.355Z,73.7
2018-04-24T01:05:29.403Z,73.7
2018-04-24T01:06:19.468Z,73.7
2018-04-24T01:07:09.522Z,73.7
2018-04-24T01:07:59.591Z,73.7
2018-04-24T01:08:49.668Z,73.7
2018-04-24T01:09:39.743Z,73.6
2018-04-24T01:10:29.775Z,73.6
2018-04-24T01:11:20.103Z,73.6
2018-04-24T01:12:09.900Z,73.6
2018-04-24T01:13:00.325Z,73.6
2018-04-24T01:13:50.338Z,73.6
2018-04-24T01:14:39.886Z,73.6
2018-04-24T01:15:30.453Z,73.6
2018-04-24T01:16:20.501Z,73.6
2018-04-24T01:17:10.365Z,73.6
2018-04-24T01:18:00.624Z,73.6
2018-04-24T01:18:50.675Z,73.6
2018-04-24T01:19:40.477Z,73.6
2018-04-24T01:20:30.558Z,73.6
2018-04-24T01:21:20.890Z,73.5
2018-04-24T01:22:10.946Z,73.5
2018-04-24T01:23:00.733Z,73.5
2018-04-24T01:23:50.816Z,73.5
2018-04-24T01:24:40.876Z,73.5
2018-04-24T01:25:31.232Z,73.4
2018-04-24T01:26:20.712Z,73.4
2018-04-24T01:27:11.075Z,73.4
2018-04-24T01:28:01.405Z,73.4
2018-04-24T01:28:51.454Z,73.4
2018-04-24T01:29:41.237Z,73.4
2018-04-24T01:30:31.594Z,73.4
2018-04-24T01:31:20.870Z,73.4
2018-04-24T01:32:11.239Z,73.4
2018-04-24T01:33:01.283Z,73.4
2018-04-24T01:33:51.080Z,73.4
2018-04-24T01:34:41.163Z,73.3
2018-04-24T01:35:31.212Z,73.3
2018-04-24T01:36:21.260Z,73.3
2018-04-24T01:37:11.621Z,73.3
2018-04-24T01:38:01.686Z,73.3
2018-04-24T01:38:51.485Z,73.3
2018-04-24T01:39:42.384Z,73.3
2018-04-24T01:40:32.085Z,73.3
2018-04-24T01:41:22.148Z,73.3
2018-04-24T01:42:12.477Z,73.3
2018-04-24T01:43:02.247Z,73.3
2018-04-24T01:43:51.769Z,73.3
2018-04-24T01:44:42.655Z,73.3
2018-04-24T01:45:32.456Z,73.3
2018-04-24T01:46:22.821Z,73.2
2018-04-24T01:47:12.872Z,73.2
2018-04-24T01:48:02.919Z,73.2
2018-04-24T01:48:52.707Z,73.2
2018-04-24T01:49:42.809Z,73.2
2018-04-24T01:50:33.135Z,73.1
2018-04-24T01:51:22.921Z,73.1
2018-04-24T01:52:13.034Z,73.2
2018-04-24T01:53:03.326Z,73.1
2018-04-24T01:53:53.379Z,73.1
2018-04-24T01:54:43.449Z,73.1
2018-04-24T01:55:33.204Z,73.1
2018-04-24T01:56:23.311Z,73.1
2018-04-24T01:57:13.633Z,73.1
2018-04-24T01:58:03.707Z,73.1
2018-04-24T01:58:53.469Z,73.1
2018-04-24T01:59:43.896Z,73.1
2018-04-24T02:00:33.871Z,73.1
2018-04-24T02:01:23.663Z,73.1
2018-04-24T02:02:13.468Z,73
2018-04-24T02:03:04.071Z,73
2018-04-24T02:03:53.879Z,73
2018-04-24T02:04:43.916Z,73
2018-04-24T02:05:33.995Z,73
2018-04-24T02:06:24.317Z,73
2018-04-24T02:07:14.102Z,73
2018-04-24T02:08:04.440Z,73
2018-04-24T02:08:54.482Z,72.9
2018-04-24T02:09:44.367Z,72.9
2018-04-24T02:10:34.364Z,72.9
2018-04-24T02:11:24.686Z,72.9
2018-04-24T02:12:14.484Z,72.9
2018-04-24T02:13:04.823Z,72.9
2018-04-24T02:13:54.599Z,72.9
2018-04-24T02:14:44.951Z,72.9
2018-04-24T02:15:34.735Z,72.9
2018-04-24T02:16:25.075Z,72.9
2018-04-24T02:17:15.136Z,72.9
2018-04-24T02:18:05.203Z,72.8
2018-04-24T02:18:55.273Z,72.8
2018-04-24T02:19:45.354Z,72.8
2018-04-24T02:20:35.406Z,72.8
2018-04-24T02:21:25.207Z,72.8
2018-04-24T02:22:15.266Z,72.8
2018-04-24T02:23:05.351Z,72.8
2018-04-24T02:23:55.384Z,72.8
2018-04-24T02:24:45.453Z,72.8
2018-04-24T02:25:35.801Z,72.8
2018-04-24T02:26:25.868Z,72.8
2018-04-24T02:27:15.351Z,72.8
2018-04-24T02:28:05.688Z,72.8
2018-04-24T02:28:55.855Z,72.7
2018-04-24T02:29:46.121Z,72.7
2018-04-24T02:30:36.216Z,72.7
2018-04-24T02:31:26.248Z,72.7
2018-04-24T02:32:16.320Z,72.7
2018-04-24T02:33:06.103Z,72.7
2018-04-24T02:33:56.433Z,72.6
2018-04-24T02:34:45.936Z,72.6
2018-04-24T02:35:36.652Z,72.6
2018-04-24T02:36:26.616Z,72.6
2018-04-24T02:37:15.905Z,72.6
2018-04-24T02:38:06.757Z,72.6
2018-04-24T02:38:56.787Z,72.6
2018-04-24T02:39:46.861Z,72.6
2018-04-24T02:40:36.930Z,72.6
2018-04-24T02:41:27.011Z,72.6
2018-04-24T02:42:16.775Z,72.6
2018-04-24T02:43:07.125Z,72.6
2018-04-24T02:43:57.208Z,72.6
2018-04-24T02:44:47.231Z,72.5
2018-04-24T02:45:37.052Z,72.5
2018-04-24T02:46:27.392Z,72.5
2018-04-24T02:47:17.429Z,72.5
2018-04-24T02:48:06.825Z,72.5
2018-04-24T02:48:56.813Z,72.4
2018-04-24T02:49:47.146Z,72.5
2018-04-24T02:50:36.921Z,72.4
2018-04-24T02:51:27.278Z,72.4
2018-04-24T02:52:17.352Z,72.4
2018-04-24T02:53:07.905Z,72.4
2018-04-24T02:53:57.942Z,72.4
2018-04-24T02:54:47.996Z,72.4
2018-04-24T02:55:38.093Z,72.4
2018-04-24T02:56:28.152Z,72.4
2018-04-24T02:57:18.292Z,72.4
2018-04-24T02:58:08.279Z,72.4
2018-04-24T02:58:58.329Z,72.3
2018-04-24T02:59:48.389Z,72.3
2018-04-24T03:00:38.463Z,72.3
2018-04-24T03:01:28.507Z,72.3
2018-04-24T03:02:18.608Z,72.3
2018-04-24T03:03:08.664Z,72.3
2018-04-24T03:03:58.725Z,72.3
2018-04-24T03:04:48.528Z,72.3
2018-04-24T03:05:38.570Z,72.3
2018-04-24T03:06:28.921Z,72.3
2018-04-24T03:07:18.968Z,72.3
2018-04-24T03:08:08.760Z,72.3
2018-04-24T03:08:59.113Z,72.3
2018-04-24T03:09:49.140Z,72.3
2018-04-24T03:10:39.222Z,72.2
2018-04-24T03:11:29.022Z,72.2
2018-04-24T03:12:19.343Z,72.2
2018-04-24T03:13:09.431Z,72.1
2018-04-24T03:13:59.488Z,72.1
2018-04-24T03:14:49.247Z,72.1
2018-04-24T03:15:39.609Z,72.1
2018-04-24T03:16:29.683Z,72.1
2018-04-24T03:17:19.714Z,72.1
2018-04-24T03:18:09.505Z,72.1
2018-04-24T03:18:59.567Z,72.1
2018-04-24T03:19:49.647Z,72
2018-04-24T03:20:40.021Z,72
2018-04-24T03:21:30.061Z,72
2018-04-24T03:22:20.112Z,72
2018-04-24T03:23:10.167Z,72
2018-04-24T03:23:59.687Z,72
2018-04-24T03:24:50.307Z,72
2018-04-24T03:25:40.127Z,71.9
2018-04-24T03:26:30.428Z,71.9
2018-04-24T03:27:20.514Z,71.9
2018-04-24T03:28:10.292Z,71.9
2018-04-24T03:29:00.360Z,71.9
2018-04-24T03:29:50.676Z,71.9
2018-04-24T03:30:40.790Z,71.9
2018-04-24T03:31:30.256Z,71.9
2018-04-24T03:32:20.872Z,71.9
2018-04-24T03:33:10.992Z,71.9
2018-04-24T03:34:01.002Z,71.9
2018-04-24T03:34:50.793Z,71.9
2018-04-24T03:35:40.292Z,71.8
2018-04-24T03:36:30.929Z,71.8
2018-04-24T03:37:20.972Z,71.8
2018-04-24T03:38:11.317Z,71.8
2018-04-24T03:39:01.377Z,71.8
2018-04-24T03:39:51.447Z,71.8
2018-04-24T03:40:41.509Z,71.8
2018-04-24T03:41:31.017Z,71.8
2018-04-24T03:42:21.335Z,71.8
2018-04-24T03:43:11.409Z,71.8
2018-04-24T03:44:01.774Z,71.8
2018-04-24T03:44:51.529Z,71.8
2018-04-24T03:45:41.883Z,71.8
2018-04-24T03:46:31.942Z,71.8
2018-04-24T03:47:21.814Z,71.7
2018-04-24T03:48:11.790Z,71.7
2018-04-24T03:49:02.130Z,71.7
2018-04-24T03:49:52.186Z,71.7
2018-04-24T03:50:41.980Z,71.7
2018-04-24T03:51:32.328Z,71.7
2018-04-24T03:52:22.397Z,71.7
2018-04-24T03:53:12.457Z,71.6
2018-04-24T03:54:02.520Z,71.6
2018-04-24T03:54:52.572Z,71.6
2018-04-24T03:55:42.360Z,71.6
2018-04-24T03:56:32.709Z,71.6
2018-04-24T03:57:23.073Z,71.6
2018-04-24T03:58:12.840Z,71.6
2018-04-24T03:59:02.927Z,71.6
2018-04-24T03:59:53.044Z,71.6
2018-04-24T04:00:43.041Z,71.6
2018-04-24T04:01:32.831Z,71.6
2018-04-24T04:02:22.888Z,71.6
2018-04-24T04:03:12.954Z,71.5
2018-04-24T04:04:03.023Z,71.5
2018-04-24T04:04:53.351Z,71.5
2018-04-24T04:05:42.925Z,71.5
2018-04-24T04:06:33.210Z,71.5
2018-04-24T04:07:22.954Z,71.4
2018-04-24T04:08:13.318Z,71.4
2018-04-24T04:09:03.716Z,71.4
2018-04-24T04:09:53.738Z,71.4
2018-04-24T04:10:43.815Z,71.4
2018-04-24T04:11:33.858Z,71.4
2018-04-24T04:12:23.928Z,71.4
2018-04-24T04:13:13.428Z,71.4
2018-04-24T04:14:04.073Z,71.4
2018-04-24T04:14:54.108Z,71.4
2018-04-24T04:15:44.188Z,71.4
2018-04-24T04:16:34.307Z,71.4
2018-04-24T04:17:24.313Z,71.4
2018-04-24T04:18:14.093Z,71.4
2018-04-24T04:19:04.475Z,71.3
2018-04-24T04:19:54.233Z,71.3
2018-04-24T04:20:44.617Z,71.3
2018-04-24T04:21:34.333Z,71.3
2018-04-24T04:22:24.209Z,71.3
2018-04-24T04:23:14.750Z,71.3
2018-04-24T04:24:04.536Z,71.3
2018-04-24T04:24:54.601Z,71.3
2018-04-24T04:25:44.986Z,71.3
2018-04-24T04:26:34.735Z,71.3
2018-04-24T04:27:24.500Z,71.3
2018-04-24T04:28:14.858Z,71.3
2018-04-24T04:29:05.200Z,71.3
2018-04-24T04:29:55.252Z,71.2
2018-04-24T04:30:45.338Z,71.2
2018-04-24T04:31:35.107Z,71.2
2018-04-24T04:32:25.524Z,71.2
2018-04-24T04:33:15.505Z,71.2
2018-04-24T04:34:05.303Z,71.1
2018-04-24T04:34:55.624Z,71.1
2018-04-24T04:35:45.749Z,71.1
2018-04-24T04:36:35.469Z,71.1
2018-04-24T04:37:25.830Z,71.1
2018-04-24T04:38:15.964Z,71.1
2018-04-24T04:39:05.660Z,71.1
2018-04-24T04:39:56.008Z,71.1
2018-04-24T04:40:45.510Z,71.1
2018-04-24T04:41:36.399Z,71.1
2018-04-24T04:42:26.191Z,71.1
2018-04-24T04:43:15.990Z,71.1
2018-04-24T04:44:06.399Z,71
2018-04-24T04:44:56.145Z,71
2018-04-24T04:45:46.201Z,71
2018-04-24T04:46:36.517Z,71
2018-04-24T04:47:26.297Z,71
2018-04-24T04:48:16.361Z,71
2018-04-24T04:49:06.483Z,70.9
2018-04-24T04:49:56.772Z,70.9
2018-04-24T04:50:46.831Z,70.9
2018-04-24T04:51:36.897Z,70.9
2018-04-24T04:52:26.663Z,70.9
2018-04-24T04:53:17.050Z,70.9
2018-04-24T04:54:07.093Z,70.9
2018-04-24T04:54:57.149Z,70.9
2018-04-24T04:55:46.934Z,70.9
2018-04-24T04:56:37.275Z,70.8
2018-04-24T04:57:26.772Z,70.8
2018-04-24T04:58:17.385Z,70.8
2018-04-24T04:59:07.472Z,70.8
2018-04-24T04:59:57.523Z,70.8
2018-04-24T05:00:47.008Z,70.8
2018-04-24T05:01:37.365Z,70.8
2018-04-24T05:02:27.734Z,70.8
2018-04-24T05:03:17.214Z,70.8
2018-04-24T05:04:07.844Z,70.8
2018-04-24T05:04:57.363Z,70.8
2018-04-24T05:05:47.980Z,70.8
2018-04-24T05:06:38.053Z,70.7
2018-04-24T05:07:28.077Z,70.7
2018-04-24T05:08:17.879Z,70.7
2018-04-24T05:09:08.230Z,70.7
2018-04-24T05:09:58.275Z,70.7
2018-04-24T05:10:48.091Z,70.6
2018-04-24T05:11:38.415Z,70.6
2018-04-24T05:12:28.457Z,70.6
2018-04-24T05:13:18.009Z,70.6
2018-04-24T05:14:08.592Z,70.6
2018-04-24T05:14:58.373Z,70.6
2018-04-24T05:15:48.155Z,70.6
2018-04-24T05:16:38.490Z,70.6
2018-04-24T05:17:28.567Z,70.6
2018-04-24T05:18:18.623Z,70.6
2018-04-24T05:19:08.993Z,70.5
2018-04-24T05:19:59.079Z,70.5
2018-04-24T05:20:48.819Z,70.5
2018-04-24T05:21:39.177Z,70.5
2018-04-24T05:22:28.974Z,70.5
2018-04-24T05:23:19.387Z,70.5
2018-04-24T05:24:09.063Z,70.4
2018-04-24T05:24:59.408Z,70.4
2018-04-24T05:25:49.553Z,70.4
2018-04-24T05:26:40.085Z,70.4
2018-04-24T05:27:29.655Z,70.4
2018-04-24T05:28:19.684Z,70.4
2018-04-24T05:29:09.495Z,70.4
2018-04-24T05:29:59.611Z,70.4
2018-04-24T05:30:49.900Z,70.4
2018-04-24T05:31:39.951Z,70.4
2018-04-24T05:32:29.989Z,70.4
2018-04-24T05:33:19.784Z,70.4
2018-04-24T05:34:10.129Z,70.3
2018-04-24T05:35:00.169Z,70.3
2018-04-24T05:35:50.390Z,70.3
2018-04-24T05:36:40.029Z,70.3
2018-04-24T05:37:30.388Z,70.3
2018-04-24T05:38:20.453Z,70.3
2018-04-24T05:39:10.549Z,70.3
2018-04-24T05:40:00.023Z,70.3
2018-04-24T05:40:50.623Z,70.3
2018-04-24T05:41:40.688Z,70.3
2018-04-24T05:42:30.480Z,70.3
2018-04-24T05:43:20.815Z,70.3
2018-04-24T05:44:10.860Z,70.3
2018-04-24T05:45:00.658Z,70.3
2018-04-24T05:45:51.045Z,70.2
2018-04-24T05:46:41.070Z,70.2
2018-04-24T05:47:30.848Z,70.2
2018-04-24T05:48:20.928Z,70.2
2018-04-24T05:49:11.254Z,70.2
2018-04-24T05:50:01.303Z,70.2
2018-04-24T05:50:51.378Z,70.1
2018-04-24T05:51:41.181Z,70.1
2018-04-24T05:52:31.245Z,70.1
2018-04-24T05:53:21.567Z,70.1
2018-04-24T05:54:11.659Z,70.1
2018-04-24T05:55:01.696Z,70.1
2018-04-24T05:55:51.749Z,70.1
2018-04-24T05:56:41.633Z,70.1
2018-04-24T05:57:31.674Z,70.1
2018-04-24T05:58:21.935Z,70.1
2018-04-24T05:59:11.737Z,70.1
2018-04-24T06:00:01.787Z,70.1
2018-04-24T06:00:52.161Z,70
2018-04-24T06:01:42.196Z,70.1
2018-04-24T06:02:32.284Z,70
2018-04-24T06:03:22.072Z,70
2018-04-24T06:04:12.103Z,69.9
2018-04-24T06:05:02.465Z,69.9
2018-04-24T06:05:52.525Z,69.9
2018-04-24T06:06:42.636Z,69.9
2018-04-24T06:07:32.704Z,69.9
2018-04-24T06:08:22.713Z,69.9
2018-04-24T06:09:12.792Z,69.9
2018-04-24T06:10:02.872Z,69.9
2018-04-24T06:10:52.621Z,69.9
2018-04-24T06:11:43.019Z,69.8
2018-04-24T06:12:33.069Z,69.8
2018-04-24T06:13:23.122Z,69.8
2018-04-24T06:14:12.883Z,69.8
2018-04-24T06:15:03.591Z,69.8
2018-04-24T06:15:53.257Z,69.8
2018-04-24T06:16:43.054Z,69.8
2018-04-24T06:17:32.859Z,69.8
2018-04-24T06:18:23.200Z,69.8
2018-04-24T06:19:12.707Z,69.8
2018-04-24T06:20:03.620Z,69.7
2018-04-24T06:20:53.126Z,69.8
2018-04-24T06:21:43.736Z,69.8
2018-04-24T06:22:34.130Z,69.7
2018-04-24T06:23:23.882Z,69.7
2018-04-24T06:24:13.644Z,69.7
2018-04-24T06:25:03.999Z,69.7
2018-04-24T06:25:53.761Z,69.7
2018-04-24T06:26:43.580Z,69.7
2018-04-24T06:27:33.864Z,69.7
2018-04-24T06:28:24.562Z,69.7
2018-04-24T06:29:14.311Z,69.6
2018-04-24T06:30:04.396Z,69.6
2018-04-24T06:30:53.949Z,69.6
2018-04-24T06:31:44.225Z,69.6
2018-04-24T06:32:34.559Z,69.6
2018-04-24T06:33:24.353Z,69.6
2018-04-24T06:34:14.390Z,69.6
2018-04-24T06:35:04.742Z,69.6
2018-04-24T06:35:54.822Z,69.6
2018-04-24T06:36:44.390Z,69.6
2018-04-24T06:37:36.601Z,69.5
2018-04-24T06:38:26.903Z,69.5
2018-04-24T06:39:16.932Z,69.5
2018-04-24T06:40:06.441Z,69.5
2018-04-24T06:40:56.863Z,69.5
2018-04-24T06:41:46.865Z,69.5
2018-04-24T06:42:36.961Z,69.5
2018-04-24T06:43:27.257Z,69.4
2018-04-24T06:44:17.347Z,69.4
2018-04-24T06:45:06.877Z,69.4
2018-04-24T06:45:57.192Z,69.4
2018-04-24T06:46:47.265Z,69.4
2018-04-24T06:47:37.043Z,69.4
2018-04-24T06:48:27.485Z,69.4
2018-04-24T06:49:17.427Z,69.4
2018-04-24T06:50:07.259Z,69.4
2018-04-24T06:50:57.839Z,69.4
2018-04-24T06:51:47.104Z,69.4
2018-04-24T06:52:38.037Z,69.4
2018-04-24T06:53:27.559Z,69.4
2018-04-24T06:54:17.829Z,69.3
2018-04-24T06:55:07.738Z,69.3
2018-04-24T06:55:57.981Z,69.3
2018-04-24T06:56:47.469Z,69.3
2018-04-24T06:57:37.595Z,69.3
2018-04-24T06:58:28.174Z,69.3
2018-04-24T06:59:17.727Z,69.3
2018-04-24T07:00:07.817Z,69.3
2018-04-24T07:00:58.494Z,69.3
2018-04-24T07:01:48.191Z,69.3
2018-04-24T07:02:38.479Z,69.3
2018-04-24T07:03:28.909Z,69.3
2018-04-24T07:04:18.644Z,69.3
2018-04-24T07:05:08.926Z,69.2
2018-04-24T07:05:59.091Z,69.2
2018-04-24T07:06:48.629Z,69.2
2018-04-24T07:07:38.643Z,69.2
2018-04-24T07:08:28.907Z,69.2
2018-04-24T07:09:19.260Z,69.2
2018-04-24T07:10:09.343Z,69.2
2018-04-24T07:10:58.617Z,69.1
2018-04-24T07:11:49.195Z,69.1
2018-04-24T07:12:39.046Z,69.1
2018-04-24T07:13:29.595Z,69.1
2018-04-24T07:14:19.669Z,69.1
2018-04-24T07:15:09.713Z,69.1
2018-04-24T07:15:59.219Z,69.1
2018-04-24T07:16:49.064Z,69.1
2018-04-24T07:17:39.629Z,69.1
2018-04-24T07:18:29.741Z,69.1
2018-04-24T07:19:19.482Z,69.1
2018-04-24T07:20:09.829Z,69.1
2018-04-24T07:21:00.200Z,69.1
2018-04-24T07:21:49.406Z,69
2018-04-24T07:22:40.320Z,69
2018-04-24T07:23:30.110Z,69
2018-04-24T07:24:20.164Z,69
2018-04-24T07:25:09.660Z,69
2018-04-24T07:26:00.580Z,69
2018-04-24T07:26:50.428Z,68.9
2018-04-24T07:27:39.387Z,68.9
2018-04-24T07:28:30.505Z,68.9
2018-04-24T07:29:20.532Z,68.9
2018-04-24T07:30:10.917Z,68.9
2018-04-24T07:31:00.686Z,68.9
2018-04-24T07:31:51.075Z,68.9
2018-04-24T07:32:40.824Z,68.9
2018-04-24T07:33:30.290Z,68.9
2018-04-24T07:34:21.227Z,68.9
2018-04-24T07:35:10.723Z,68.9
2018-04-24T07:36:01.064Z,68.9
2018-04-24T07:36:51.141Z,68.9
2018-04-24T07:37:41.534Z,68.8
2018-04-24T07:38:31.667Z,68.8
2018-04-24T07:39:21.371Z,68.8
2018-04-24T07:40:11.363Z,68.8
2018-04-24T07:41:01.806Z,68.8
2018-04-24T07:41:50.962Z,68.8
2018-04-24T07:42:41.875Z,68.8
2018-04-24T07:43:31.659Z,68.8
2018-04-24T07:44:21.996Z,68.8
2018-04-24T07:45:11.759Z,68.8
2018-04-24T07:46:01.873Z,68.8
2018-04-24T07:46:52.853Z,68.8
2018-04-24T07:47:41.979Z,68.8
2018-04-24T07:48:31.272Z,68.7
2018-04-24T07:49:22.365Z,68.7
2018-04-24T07:50:12.185Z,68.7
2018-04-24T07:51:01.973Z,68.8
2018-04-24T07:51:52.572Z,68.7
2018-04-24T07:52:42.625Z,68.7
2018-04-24T07:53:32.687Z,68.7
2018-04-24T07:54:22.212Z,68.6
2018-04-24T07:55:12.592Z,68.6
2018-04-24T07:56:02.433Z,68.6
2018-04-24T07:56:52.703Z,68.6
2018-04-24T07:57:42.565Z,68.6
2018-04-24T07:58:33.172Z,68.6
2018-04-24T07:59:22.931Z,68.6
2018-04-24T08:00:13.233Z,68.6
2018-04-24T08:01:03.303Z,68.6
2018-04-24T08:01:53.383Z,68.6
2018-04-24T08:02:42.965Z,68.6
2018-04-24T08:03:33.034Z,68.6
2018-04-24T08:04:23.014Z,68.6
2018-04-24T08:05:13.076Z,68.6
2018-04-24T08:06:03.441Z,68.5
2018-04-24T08:06:53.470Z,68.5
2018-04-24T08:07:43.930Z,68.5
2018-04-24T08:08:33.623Z,68.5
2018-04-24T08:09:23.963Z,68.5
2018-04-24T08:10:13.437Z,68.5
2018-04-24T08:11:03.546Z,68.5
2018-04-24T08:11:53.328Z,68.4
2018-04-24T08:12:44.192Z,68.4
2018-04-24T08:13:34.011Z,68.4
2018-04-24T08:14:24.331Z,68.4
2018-04-24T08:15:13.847Z,68.4
2018-04-24T08:16:03.910Z,68.4
2018-04-24T08:16:53.947Z,68.4
2018-04-24T08:17:44.057Z,68.4
2018-04-24T08:18:34.678Z,68.4
2018-04-24T08:19:24.706Z,68.4
2018-04-24T08:20:14.858Z,68.4
2018-04-24T08:21:04.871Z,68.4
2018-04-24T08:21:54.661Z,68.4
2018-04-24T08:22:44.874Z,68.4
2018-04-24T08:23:34.747Z,68.3
2018-04-24T08:24:24.565Z,68.3
2018-04-24T08:25:14.923Z,68.3
2018-04-24T08:26:04.677Z,68.3
2018-04-24T08:26:55.069Z,68.3
2018-04-24T08:27:45.423Z,68.3
2018-04-24T08:28:34.969Z,68.3
2018-04-24T08:29:25.219Z,68.3
2018-04-24T08:30:15.014Z,68.3
2018-04-24T08:31:05.427Z,68.3
2018-04-24T08:31:55.698Z,68.3
2018-04-24T08:32:45.506Z,68.3
2018-04-24T08:33:35.403Z,68.2
2018-04-24T08:34:25.702Z,68.2
2018-04-24T08:35:16.023Z,68.2
2018-04-24T08:36:06.111Z,68.2
2018-04-24T08:36:56.101Z,68.2
2018-04-24T08:37:45.912Z,68.2
2018-04-24T08:38:35.673Z,68.2
2018-04-24T08:39:25.735Z,68.1
2018-04-24T08:40:15.809Z,68.2
2018-04-24T08:41:06.432Z,68.1
2018-04-24T08:41:56.711Z,68.1
2018-04-24T08:42:46.577Z,68.1
2018-04-24T08:43:36.428Z,68.1
2018-04-24T08:44:26.223Z,68.1
2018-04-24T08:45:16.777Z,68.1
2018-04-24T08:46:06.843Z,68.1
2018-04-24T08:46:56.866Z,68.1
2018-04-24T08:47:46.982Z,68.1
2018-04-24T08:48:36.563Z,68.1
2018-04-24T08:49:27.168Z,68.1
2018-04-24T08:50:16.573Z,68.1
2018-04-24T08:51:06.930Z,68.1
2018-04-24T08:51:56.999Z,68.1
2018-04-24T08:52:47.351Z,68
2018-04-24T08:53:37.395Z,68
2018-04-24T08:54:27.493Z,68
2018-04-24T08:55:17.629Z,68
2018-04-24T08:56:07.352Z,68
2018-04-24T08:56:57.670Z,68
2018-04-24T08:57:47.446Z,67.9
2018-04-24T08:58:37.792Z,67.9
2018-04-24T08:59:27.897Z,67.9
2018-04-24T09:00:17.451Z,67.9
2018-04-24T09:01:07.712Z,67.9
2018-04-24T09:01:58.226Z,67.9
2018-04-24T09:02:47.581Z,67.9
2018-04-24T09:03:37.913Z,67.9
2018-04-24T09:04:27.992Z,67.9
2018-04-24T09:05:18.030Z,67.9
2018-04-24T09:06:08.197Z,67.9
2018-04-24T09:06:58.195Z,67.9
2018-04-24T09:07:48.244Z,67.9
2018-04-24T09:08:39.225Z,67.8
2018-04-24T09:09:28.356Z,67.9
2018-04-24T09:10:18.710Z,67.9
2018-04-24T09:11:08.834Z,67.8
2018-04-24T09:11:58.854Z,67.8
2018-04-24T09:12:48.996Z,67.8
2018-04-24T09:13:38.437Z,67.8
2018-04-24T09:14:28.510Z,67.8
2018-04-24T09:15:19.094Z,67.8
2018-04-24T09:16:08.894Z,67.8
2018-04-24T09:16:59.247Z,67.8
2018-04-24T09:17:49.033Z,67.8
2018-04-24T09:18:38.862Z,67.8
2018-04-24T09:19:29.585Z,67.8
2018-04-24T09:20:18.946Z,67.8
2018-04-24T09:21:09.318Z,67.8
2018-04-24T09:21:59.114Z,67.8
2018-04-24T09:22:49.437Z,67.7
2018-04-24T09:23:39.549Z,67.7
2018-04-24T09:24:28.979Z,67.7
2018-04-24T09:25:19.639Z,67.7
2018-04-24T09:26:09.993Z,67.6
2018-04-24T09:27:00.785Z,67.6
2018-04-24T09:27:50.111Z,67.6
2018-04-24T09:28:39.903Z,67.6
2018-04-24T09:29:30.262Z,67.6
2018-04-24T09:30:20.039Z,67.8
2018-04-24T09:31:09.518Z,67.8
2018-04-24T09:32:00.160Z,67.8
2018-04-24T09:32:50.205Z,67.9
2018-04-24T09:33:42.271Z,68
2018-04-24T09:34:30.621Z,68.1
2018-04-24T09:35:20.223Z,68.1
2018-04-24T09:36:10.779Z,68.3
2018-04-24T09:37:00.828Z,68.3
2018-04-24T09:37:50.896Z,68.3
2018-04-24T09:38:40.750Z,68.4
2018-04-24T09:39:31.032Z,68.6
2018-04-24T09:40:20.782Z,68.8
2018-04-24T09:41:10.582Z,68.8
2018-04-24T09:42:00.952Z,68.9
2018-04-24T09:42:51.087Z,68.9
2018-04-24T09:43:41.074Z,69.1
2018-04-24T09:44:30.860Z,69.2
2018-04-24T09:45:21.207Z,69.3
2018-04-24T09:46:11.087Z,69.3
2018-04-24T09:47:01.315Z,69.4
2018-04-24T09:47:51.422Z,69.6
2018-04-24T09:48:41.740Z,69.6
2018-04-24T09:49:31.687Z,69.7
2018-04-24T09:50:21.624Z,69.8
2018-04-24T09:51:11.119Z,69.9
2018-04-24T09:52:01.728Z,69.9
2018-04-24T09:52:51.786Z,70
2018-04-24T09:53:41.005Z,70.1
2018-04-24T09:54:31.087Z,70.3
2018-04-24T09:55:22.285Z,70.3
2018-04-24T09:56:12.033Z,70.4
2018-04-24T09:57:02.389Z,70.5
2018-04-24T09:57:52.463Z,70.6
2018-04-24T09:58:56.892Z,70.7
2018-04-24T09:59:32.383Z,70.8
2018-04-24T10:00:22.686Z,70.9
2018-04-24T10:01:12.734Z,71
2018-04-24T10:02:02.786Z,71.1
2018-04-24T10:02:52.839Z,71.1
2018-04-24T10:03:42.630Z,71.2
2018-04-24T10:04:33.008Z,71.3
2018-04-24T10:05:22.785Z,71.4
2018-04-24T10:06:12.571Z,71.4
2018-04-24T10:07:02.909Z,71.6
2018-04-24T10:07:54.085Z,71.6
2018-04-24T10:08:42.751Z,71.8
2018-04-24T10:09:33.101Z,71.9
2018-04-24T10:10:23.158Z,71.9
2018-04-24T10:11:12.966Z,72
2018-04-24T10:12:02.469Z,72.1
2018-04-24T10:12:53.393Z,72.3
2018-04-24T10:13:44.441Z,72.3
2018-04-24T10:14:33.777Z,72.4
2018-04-24T10:15:23.835Z,72.5
2018-04-24T10:16:13.890Z,72.6
2018-04-24T10:17:03.988Z,72.7
2018-04-24T10:17:53.475Z,72.8
2018-04-24T10:18:44.077Z,72.8
2018-04-24T10:19:33.934Z,72.9
2018-04-24T10:20:23.962Z,72.9
2018-04-24T10:21:14.032Z,73
2018-04-24T10:22:04.373Z,73.1
2018-04-24T10:22:54.137Z,73.2
2018-04-24T10:23:44.498Z,73.3
2018-04-24T10:24:34.555Z,73.3
2018-04-24T10:25:24.073Z,73.4
2018-04-24T10:26:14.432Z,73.6
2018-04-24T10:27:04.500Z,73.7
2018-04-24T10:27:54.284Z,73.8
2018-04-24T10:28:44.643Z,73.8
2018-04-24T10:29:34.433Z,73.9
2018-04-24T10:30:24.746Z,73.9
2018-04-24T10:31:15.088Z,74.1
2018-04-24T10:32:05.185Z,74.1
2018-04-24T10:32:55.287Z,74.2
2018-04-24T10:33:45.031Z,74.3
2018-04-24T10:34:34.254Z,74.4
2018-04-24T10:35:24.879Z,74.4
2018-04-24T10:36:14.625Z,74.5
2018-04-24T10:37:05.559Z,74.6
2018-04-24T10:37:55.070Z,74.7
2018-04-24T10:38:45.114Z,74.8
2018-04-24T10:39:34.946Z,74.9
2018-04-24T10:40:24.965Z,74.9
2018-04-24T10:41:15.899Z,74.9
2018-04-24T10:42:05.771Z,74.9
2018-04-24T10:42:55.479Z,74.9
2018-04-24T10:43:46.264Z,75.1
2018-04-24T10:44:35.866Z,75.2
2018-04-24T10:45:25.911Z,75.3
2018-04-24T10:46:16.308Z,75.3
2018-04-24T10:47:06.089Z,75.4
2018-04-24T10:47:56.159Z,75.5
2018-04-24T10:48:46.207Z,75.6
2018-04-24T10:49:36.290Z,75.7
2018-04-24T10:50:25.607Z,75.8
2018-04-24T10:51:15.842Z,75.8
2018-04-24T10:52:06.467Z,75.9
2018-04-24T10:52:56.834Z,75.9
2018-04-24T10:53:46.323Z,76
2018-04-24T10:54:36.700Z,76.1
2018-04-24T10:55:27.035Z,76.2
2018-04-24T10:56:16.811Z,76.3
2018-04-24T10:57:06.560Z,76.3
2018-04-24T10:57:56.965Z,76.4
2018-04-24T10:58:47.333Z,76.4
2018-04-24T10:59:37.047Z,76.5
2018-04-24T11:00:27.109Z,76.6
2018-04-24T11:01:17.461Z,76.7
2018-04-24T11:02:07.549Z,76.8
2018-04-24T11:02:57.578Z,76.8
2018-04-24T11:03:47.641Z,76.8
2018-04-24T11:04:36.872Z,76.9
2018-04-24T11:05:27.780Z,76.9
2018-04-24T11:06:17.860Z,77
2018-04-24T11:07:07.938Z,77.1
2018-04-24T11:07:57.988Z,77.2
2018-04-24T11:08:47.785Z,77.2